createdAt,value
2018-03-25T00:00:59.103Z,69.67
2018-03-25T00:03:24.928Z,68.30
2018-03-25T00:05:50.725Z,68.55
2018-03-25T00:08:16.543Z,67.99
2018-03-25T00:10:42.336Z,68.82
2018-03-25T00:13:08.124Z,69.36
2018-03-25T00:15:33.935Z,68.30
2018-03-25T00:17:59.737Z,69.38
2018-03-25T00:20:25.515Z,68.31
2018-03-25T00:22:51.393Z,69.47
2018-03-25T00:25:17.224Z,69.75
2018-03-25T00:27:43.037Z,69.12
2018-03-25T00:30:08.822Z,69.12
2018-03-25T00:32:34.619Z,69.56
2018-03-25T00:35:00.415Z,69.34
2018-03-25T00:37:26.207Z,69.90
2018-03-25T00:39:52.008Z,69.35
2018-03-25T00:42:17.833Z,69.64
2018-03-25T00:44:43.608Z,68.82
2018-03-25T00:47:09.405Z,69.38
2018-03-25T00:49:35.200Z,69.60
2018-03-25T00:52:01.006Z,70.03
2018-03-25T00:54:26.794Z,69.20
2018-03-25T00:56:52.579Z,71.05
2018-03-25T00:59:18.399Z,69.97
2018-03-25T01:01:44.205Z,70.27
2018-03-25T01:04:09.974Z,71.64
2018-03-25T01:06:35.767Z,70.17
2018-03-25T01:09:01.564Z,68.81
2018-03-25T01:11:27.436Z,70.23
2018-03-25T01:13:53.262Z,70.47
2018-03-25T01:16:19.057Z,70.48
2018-03-25T01:18:44.838Z,70.00
2018-03-25T01:21:10.734Z,70.45
2018-03-25T01:23:36.520Z,70.58
2018-03-25T01:26:02.311Z,71.82
2018-03-25T01:28:28.449Z,72.43
2018-03-25T01:30:54.248Z,70.82
2018-03-25T01:33:20.041Z,71.01
2018-03-25T01:35:45.847Z,71.22
2018-03-25T01:38:11.643Z,72.11
2018-03-25T01:40:37.427Z,71.78
2018-03-25T01:43:03.244Z,71.28
2018-03-25T01:45:29.032Z,70.21
2018-03-25T01:50:27.379Z,73.48
2018-03-25T01:52:53.170Z,71.12
2018-03-25T01:55:18.956Z,70.84
2018-03-25T01:57:44.760Z,72.29
2018-03-25T02:00:10.555Z,72.92
2018-03-25T02:02:36.658Z,72.86
2018-03-25T02:05:02.467Z,71.77
2018-03-25T02:07:28.266Z,71.99
2018-03-25T02:09:54.066Z,72.92
2018-03-25T02:12:19.855Z,71.44
2018-03-25T02:14:45.666Z,72.71
2018-03-25T02:17:11.460Z,72.59
2018-03-25T02:19:37.245Z,72.76
2018-03-25T02:22:03.079Z,71.00
2018-03-25T02:24:28.864Z,70.65
2018-03-25T02:26:54.673Z,73.24
2018-03-25T02:29:20.497Z,71.72
2018-03-25T02:31:46.268Z,70.57
2018-03-25T02:34:12.053Z,72.43
2018-03-25T02:36:37.888Z,72.21
2018-03-25T02:39:03.691Z,72.22
2018-03-25T02:41:29.491Z,71.50
2018-03-25T02:43:55.576Z,72.49
2018-03-25T02:46:21.357Z,72.15
2018-03-25T02:48:47.142Z,72.07
2018-03-25T02:51:13.234Z,71.14
2018-03-25T02:53:39.015Z,72.32
2018-03-25T02:56:04.803Z,71.48
2018-03-25T02:58:30.634Z,70.63
2018-03-25T03:00:56.436Z,72.04
2018-03-25T03:03:22.246Z,70.89
2018-03-25T03:05:48.044Z,72.36
2018-03-25T03:08:13.829Z,74.17
2018-03-25T03:10:39.664Z,72.59
2018-03-25T03:13:05.463Z,73.68
2018-03-25T03:15:31.280Z,71.41
2018-03-25T03:17:57.078Z,73.79
2018-03-25T03:20:22.867Z,73.63
2018-03-25T03:22:48.655Z,72.32
2018-03-25T03:25:15.300Z,72.56
2018-03-25T03:27:41.086Z,72.61
2018-03-25T03:30:06.875Z,72.71
2018-03-25T03:32:32.944Z,74.78
2018-03-25T03:34:58.723Z,73.84
2018-03-25T03:37:24.519Z,74.20
2018-03-25T03:39:50.413Z,74.79
2018-03-25T03:44:48.779Z,73.00
2018-03-25T03:47:14.667Z,74.01
2018-03-25T03:49:40.452Z,72.81
2018-03-25T03:52:06.248Z,73.44
2018-03-25T03:54:32.224Z,73.62
2018-03-25T03:56:58.016Z,72.73
2018-03-25T03:59:23.795Z,73.22
2018-03-25T04:01:49.665Z,73.57
2018-03-25T04:04:15.474Z,72.91
2018-03-25T04:06:41.246Z,73.19
2018-03-25T04:09:07.090Z,72.82
2018-03-25T04:11:32.848Z,73.50
2018-03-25T04:13:58.660Z,73.52
2018-03-25T04:16:24.463Z,73.09
2018-03-25T04:18:50.266Z,72.64
2018-03-25T04:21:16.405Z,73.25
2018-03-25T04:23:42.219Z,73.85
2018-03-25T04:26:08.004Z,73.31
2018-03-25T04:28:33.799Z,72.47
2018-03-25T04:30:59.595Z,73.70
2018-03-25T04:33:25.400Z,74.18
2018-03-25T04:35:51.301Z,73.44
2018-03-25T04:38:17.095Z,73.39
2018-03-25T04:40:42.911Z,73.09
2018-03-25T04:43:08.695Z,72.46
2018-03-25T04:45:34.483Z,74.00
2018-03-25T04:48:00.284Z,72.59
2018-03-25T04:50:26.074Z,73.13
2018-03-25T04:52:51.859Z,73.39
2018-03-25T04:55:17.671Z,73.96
2018-03-25T04:57:43.480Z,73.62
2018-03-25T05:00:09.290Z,73.56
2018-03-25T05:02:35.096Z,72.38
2018-03-25T05:05:00.885Z,72.42
2018-03-25T05:07:26.679Z,73.63
2018-03-25T05:09:52.490Z,72.81
2018-03-25T05:12:18.271Z,72.52
2018-03-25T05:14:44.060Z,74.39
2018-03-25T05:17:09.863Z,73.35
2018-03-25T05:19:35.662Z,72.63
2018-03-25T05:22:01.440Z,75.21
2018-03-25T05:24:27.512Z,72.64
2018-03-25T05:26:53.299Z,73.31
2018-03-25T05:29:19.077Z,74.66
2018-03-25T05:31:44.880Z,75.05
2018-03-25T05:34:10.718Z,74.34
2018-03-25T05:36:36.470Z,73.03
2018-03-25T05:39:02.304Z,73.50
2018-03-25T05:41:28.086Z,72.67
2018-03-25T05:43:53.920Z,73.48
2018-03-25T05:46:19.738Z,73.27
2018-03-25T05:48:45.519Z,73.29
2018-03-25T05:51:11.321Z,73.02
2018-03-25T05:53:37.115Z,73.32
2018-03-25T05:56:02.919Z,72.93
2018-03-25T05:58:28.707Z,71.63
2018-03-25T06:00:54.526Z,71.98
2018-03-25T06:03:20.310Z,71.94
2018-03-25T06:05:46.094Z,72.46
2018-03-25T06:08:11.906Z,72.72
2018-03-25T06:10:37.700Z,72.66
2018-03-25T06:13:03.524Z,72.78
2018-03-25T06:15:29.331Z,73.03
2018-03-25T06:17:55.106Z,73.02
2018-03-25T06:20:20.895Z,73.34
2018-03-25T06:22:46.713Z,73.21
2018-03-25T06:25:12.519Z,73.03
2018-03-25T06:27:38.315Z,73.09
2018-03-25T06:30:04.303Z,72.80
2018-03-25T06:32:30.091Z,73.00
2018-03-25T06:34:55.889Z,72.74
2018-03-25T06:37:21.696Z,72.68
2018-03-25T06:39:47.495Z,73.84
2018-03-25T06:42:13.289Z,73.48
2018-03-25T06:44:39.078Z,73.76
2018-03-25T06:47:04.893Z,73.54
2018-03-25T06:49:30.703Z,73.56
2018-03-25T06:51:56.490Z,73.20
2018-03-25T06:54:22.267Z,73.29
2018-03-25T06:56:48.091Z,73.35
2018-03-25T06:59:13.879Z,73.06
2018-03-25T07:01:39.652Z,72.46
2018-03-25T07:04:05.699Z,72.82
2018-03-25T07:06:31.508Z,73.07
2018-03-25T07:08:57.314Z,72.58
2018-03-25T07:11:23.104Z,72.57
2018-03-25T07:13:48.907Z,72.35
2018-03-25T07:16:14.958Z,72.35
2018-03-25T07:18:40.743Z,72.19
2018-03-25T07:21:06.536Z,72.47
2018-03-25T07:23:32.323Z,71.45
2018-03-25T07:25:58.124Z,72.29
2018-03-25T07:28:23.921Z,71.65
2018-03-25T07:30:49.725Z,71.95
2018-03-25T07:33:15.546Z,71.55
2018-03-25T07:35:41.335Z,71.49
2018-03-25T07:38:07.170Z,71.38
2018-03-25T07:40:33.005Z,71.29
2018-03-25T07:42:58.796Z,71.42
2018-03-25T07:45:24.607Z,71.03
2018-03-25T07:47:50.444Z,70.78
2018-03-25T07:50:16.221Z,70.81
2018-03-25T07:52:42.003Z,70.48
2018-03-25T07:55:07.828Z,70.76
2018-03-25T07:57:33.623Z,70.21
2018-03-25T07:59:59.397Z,70.19
2018-03-25T08:02:25.226Z,71.05
2018-03-25T08:04:51.016Z,70.37
2018-03-25T08:07:16.833Z,69.42
2018-03-25T08:09:42.636Z,70.85
2018-03-25T08:12:08.431Z,68.19
2018-03-25T08:14:34.247Z,68.09
2018-03-25T08:17:00.025Z,68.13
2018-03-25T08:19:26.206Z,68.71
2018-03-25T08:21:51.983Z,66.38
2018-03-25T08:24:17.785Z,68.25
2018-03-25T08:26:43.566Z,66.41
2018-03-25T08:29:09.363Z,64.81
2018-03-25T08:31:35.155Z,64.91
2018-03-25T08:34:00.938Z,65.06
2018-03-25T08:36:26.738Z,65.08
2018-03-25T08:38:52.551Z,64.42
2018-03-25T08:41:18.358Z,63.10
2018-03-25T08:43:44.184Z,63.84
2018-03-25T08:46:09.992Z,63.38
2018-03-25T08:48:35.784Z,63.69
2018-03-25T08:51:01.691Z,63.54
2018-03-25T08:53:27.481Z,63.18
2018-03-25T08:55:53.258Z,62.40
2018-03-25T08:58:19.376Z,62.32
2018-03-25T09:00:45.180Z,62.43
2018-03-25T09:03:10.961Z,62.27
2018-03-25T09:05:36.775Z,60.60
2018-03-25T09:08:02.575Z,59.92
2018-03-25T09:10:28.378Z,59.65
2018-03-25T09:12:54.213Z,60.33
2018-03-25T09:15:19.994Z,58.83
2018-03-25T09:17:45.784Z,58.85
2018-03-25T09:20:11.588Z,58.14
2018-03-25T09:22:37.402Z,57.69
2018-03-25T09:25:03.210Z,58.00
2018-03-25T09:27:29.031Z,58.35
2018-03-25T09:29:54.823Z,58.22
2018-03-25T09:32:20.601Z,58.16
2018-03-25T09:34:46.423Z,58.20
2018-03-25T09:37:12.270Z,56.66
2018-03-25T09:39:38.028Z,57.37
2018-03-25T09:42:03.859Z,57.57
2018-03-25T09:44:29.655Z,57.45
2018-03-25T09:46:55.443Z,57.72
2018-03-25T09:49:21.224Z,57.21
2018-03-25T09:51:47.021Z,55.56
2018-03-25T09:54:12.819Z,54.32
2018-03-25T09:56:38.656Z,55.09
2018-03-25T09:59:04.448Z,54.75
2018-03-25T10:04:25.107Z,53.70
2018-03-25T10:06:50.884Z,54.08
2018-03-25T10:09:16.691Z,54.08
2018-03-25T10:11:42.512Z,52.88
2018-03-25T10:14:08.360Z,53.72
2018-03-25T10:16:34.132Z,54.43
2018-03-25T10:19:00.003Z,54.90
2018-03-25T10:21:25.807Z,55.68
2018-03-25T10:23:51.623Z,55.13
2018-03-25T10:26:17.420Z,55.51
2018-03-25T10:28:43.208Z,54.45
2018-03-25T10:31:09.032Z,54.63
2018-03-25T10:33:34.818Z,53.51
2018-03-25T10:36:00.616Z,53.96
2018-03-25T10:38:27.349Z,54.20
2018-03-25T10:40:53.172Z,54.31
2018-03-25T10:43:19.230Z,54.16
2018-03-25T10:45:45.501Z,53.57
2018-03-25T10:48:11.815Z,54.00
2018-03-25T10:50:38.021Z,54.04
2018-03-25T10:53:04.287Z,53.41
2018-03-25T10:55:30.124Z,53.62
2018-03-25T10:57:56.390Z,53.83
2018-03-25T11:00:22.580Z,51.86
2018-03-25T11:02:48.742Z,53.81
2018-03-25T11:05:15.045Z,53.04
2018-03-25T11:07:41.112Z,51.75
2018-03-25T11:10:07.406Z,56.19
2018-03-25T11:12:33.495Z,56.14
2018-03-25T11:17:31.894Z,54.54
2018-03-25T11:19:57.728Z,54.82
2018-03-25T11:22:24.290Z,55.41
2018-03-25T11:24:50.103Z,54.87
2018-03-25T11:27:16.823Z,54.25
2018-03-25T11:29:42.627Z,55.60
2018-03-25T11:32:08.426Z,55.39
2018-03-25T11:34:34.256Z,55.75
2018-03-25T11:37:00.118Z,55.50
2018-03-25T11:39:25.990Z,55.33
2018-03-25T11:41:51.820Z,55.10
2018-03-25T11:44:17.651Z,54.58
2018-03-25T11:46:43.457Z,54.54
2018-03-25T11:49:10.111Z,55.62
2018-03-25T11:51:35.935Z,55.26
2018-03-25T11:54:01.771Z,55.82
2018-03-25T11:56:27.591Z,54.64
2018-03-25T11:58:53.657Z,53.58
2018-03-25T12:01:19.607Z,52.03
2018-03-25T12:03:45.418Z,53.67
2018-03-25T12:06:11.929Z,54.56
2018-03-25T12:08:37.776Z,53.68
2018-03-25T12:11:03.566Z,53.63
2018-03-25T12:13:29.396Z,53.95
2018-03-25T12:15:55.213Z,54.54
2018-03-25T12:18:21.148Z,54.18
2018-03-25T12:20:47.060Z,54.96
2018-03-25T12:23:12.971Z,53.26
2018-03-25T12:25:38.811Z,53.54
2018-03-25T12:28:04.716Z,53.80
2018-03-25T12:30:30.548Z,52.39
2018-03-25T12:32:56.352Z,54.08
2018-03-25T12:35:23.017Z,52.75
2018-03-25T12:37:49.468Z,51.52
2018-03-25T12:40:15.303Z,52.27
2018-03-25T12:42:41.711Z,51.59
2018-03-25T12:45:07.909Z,51.82
2018-03-25T12:47:33.715Z,51.16
2018-03-25T12:49:59.532Z,51.50
2018-03-25T12:52:25.324Z,50.75
2018-03-25T12:54:51.144Z,51.04
2018-03-25T12:57:16.939Z,52.13
2018-03-25T12:59:42.762Z,49.85
2018-03-25T13:02:08.553Z,50.66
2018-03-25T13:04:34.403Z,50.79
2018-03-25T13:07:00.187Z,67.03
2018-03-25T13:09:26.072Z,50.29
2018-03-25T13:11:51.903Z,51.31
2018-03-25T13:14:17.742Z,52.13
2018-03-25T13:16:43.544Z,53.02
2018-03-25T13:19:09.351Z,53.22
2018-03-25T13:21:35.225Z,52.73
2018-03-25T13:24:01.051Z,53.13
2018-03-25T13:26:26.836Z,51.71
2018-03-25T13:28:52.665Z,51.85
2018-03-25T13:31:18.474Z,52.21
2018-03-25T13:33:44.262Z,53.26
2018-03-25T13:36:10.067Z,53.30
2018-03-25T13:38:35.867Z,53.77
2018-03-25T13:41:01.660Z,54.25
2018-03-25T13:43:27.481Z,54.54
2018-03-25T13:45:53.282Z,56.73
2018-03-25T13:48:19.108Z,57.94
2018-03-25T13:50:44.906Z,57.03
2018-03-25T13:53:10.702Z,57.39
2018-03-25T13:55:36.506Z,57.73
2018-03-25T13:58:02.342Z,58.18
2018-03-25T14:00:28.125Z,58.84
2018-03-25T14:02:53.955Z,57.89
2018-03-25T14:05:19.826Z,59.02
2018-03-25T14:07:45.660Z,57.51
2018-03-25T14:10:11.440Z,60.27
2018-03-25T14:12:37.277Z,56.60
2018-03-25T14:15:03.091Z,55.95
2018-03-25T14:17:28.915Z,56.02
2018-03-25T14:19:54.752Z,55.81
2018-03-25T14:22:20.532Z,63.48
2018-03-25T14:24:46.344Z,56.00
2018-03-25T14:27:12.214Z,56.17
2018-03-25T14:29:37.998Z,56.91
2018-03-25T14:32:03.825Z,56.14
2018-03-25T14:34:29.629Z,55.90
2018-03-25T14:36:55.410Z,53.24
2018-03-25T14:39:21.208Z,55.13
2018-03-25T14:41:47.001Z,54.13
2018-03-25T14:44:13.848Z,53.57
2018-03-25T14:46:39.651Z,55.47
2018-03-25T14:49:05.473Z,52.34
2018-03-25T14:51:31.286Z,54.41
2018-03-25T14:54:04.179Z,55.67
2018-03-25T14:56:30.016Z,56.86
2018-03-25T14:58:55.798Z,57.65
2018-03-25T15:01:21.625Z,56.77
2018-03-25T15:03:47.418Z,56.95
2018-03-25T15:06:13.220Z,57.34
2018-03-25T15:08:39.115Z,57.82
2018-03-25T15:11:04.938Z,58.42
2018-03-25T15:13:30.760Z,58.73
2018-03-25T15:15:56.820Z,58.88
2018-03-25T15:18:22.634Z,59.45
2018-03-25T15:20:48.468Z,59.20
2018-03-25T15:23:14.275Z,58.78
2018-03-25T15:25:40.058Z,59.58
2018-03-25T15:28:05.853Z,59.55
2018-03-25T15:30:31.688Z,77.48
2018-03-25T15:32:57.479Z,74.30
2018-03-25T15:35:23.284Z,56.42
2018-03-25T15:37:49.113Z,70.31
2018-03-25T15:40:14.920Z,59.69
2018-03-25T15:42:40.708Z,62.49
2018-03-25T15:45:06.510Z,56.65
2018-03-25T15:47:32.309Z,57.93
2018-03-25T15:49:58.104Z,57.58
2018-03-25T15:52:24.199Z,58.34
2018-03-25T15:54:49.991Z,59.63
2018-03-25T15:57:15.770Z,60.45
2018-03-25T15:59:41.651Z,60.64
2018-03-25T16:02:07.457Z,61.21
2018-03-25T16:04:33.267Z,60.94
2018-03-25T16:06:59.064Z,60.97
2018-03-25T16:09:24.873Z,61.70
2018-03-25T16:11:51.135Z,61.75
2018-03-25T16:14:16.952Z,62.18
2018-03-25T16:16:42.747Z,61.88
2018-03-25T16:19:08.615Z,62.09
2018-03-25T16:21:34.426Z,62.38
2018-03-25T16:24:00.202Z,62.72
2018-03-25T16:26:26.000Z,63.19
2018-03-25T16:28:51.890Z,63.09
2018-03-25T16:31:17.731Z,63.85
2018-03-25T16:33:43.523Z,63.09
2018-03-25T16:36:09.345Z,63.16
2018-03-25T16:38:35.166Z,63.75
2018-03-25T16:41:00.978Z,63.64
2018-03-25T16:43:26.775Z,64.09
2018-03-25T16:45:52.586Z,64.17
2018-03-25T16:48:18.380Z,63.91
2018-03-25T16:50:44.191Z,64.32
2018-03-25T16:53:10.261Z,64.02
2018-03-25T16:55:36.053Z,64.22
2018-03-25T16:58:01.903Z,64.75
2018-03-25T17:00:27.924Z,65.10
2018-03-25T17:02:53.723Z,65.23
2018-03-25T17:05:19.515Z,65.02
2018-03-25T17:07:46.150Z,65.71
2018-03-25T17:10:12.900Z,65.99
2018-03-25T17:12:38.737Z,66.04
2018-03-25T17:15:04.618Z,66.24
2018-03-25T17:17:30.447Z,66.42
2018-03-25T17:19:56.300Z,66.54
2018-03-25T17:22:23.104Z,66.66
2018-03-25T17:24:48.929Z,67.06
2018-03-25T17:27:15.068Z,67.73
2018-03-25T17:29:42.420Z,67.12
2018-03-25T17:32:08.914Z,68.05
2018-03-25T17:34:34.773Z,67.53
2018-03-25T17:37:00.628Z,67.12
2018-03-25T17:39:26.554Z,67.12
2018-03-25T17:41:52.474Z,67.44
2018-03-25T17:44:18.269Z,67.23
2018-03-25T17:46:45.056Z,67.75
2018-03-25T17:49:10.866Z,67.71
2018-03-25T17:51:36.692Z,68.32
2018-03-25T17:54:02.521Z,68.63
2018-03-25T17:56:28.336Z,67.82
2018-03-25T17:58:54.147Z,68.12
2018-03-25T18:01:19.957Z,68.33
2018-03-25T18:03:45.770Z,68.95
2018-03-25T18:06:11.681Z,67.92
2018-03-25T18:08:37.903Z,68.28
2018-03-25T18:11:03.717Z,68.21
2018-03-25T18:13:29.591Z,72.48
2018-03-25T18:15:55.412Z,75.34
2018-03-25T18:18:21.455Z,68.12
2018-03-25T18:20:56.295Z,67.35
2018-03-25T18:23:14.230Z,68.47
2018-03-25T18:25:40.032Z,68.67
2018-03-25T18:28:05.979Z,68.55
2018-03-25T18:30:32.194Z,69.05
2018-03-25T18:32:58.353Z,68.94
2018-03-25T18:35:24.598Z,69.10
2018-03-25T18:37:50.728Z,69.26
2018-03-25T18:40:16.919Z,69.79
2018-03-25T18:42:42.867Z,70.24
2018-03-25T18:45:09.107Z,71.94
2018-03-25T18:47:35.062Z,71.31
2018-03-25T18:50:00.991Z,70.53
2018-03-25T18:52:26.939Z,70.70
2018-03-25T18:54:53.081Z,81.11
2018-03-25T18:57:19.433Z,68.67
2018-03-25T18:59:45.463Z,70.36
2018-03-25T19:02:11.331Z,70.49
2018-03-25T19:04:37.541Z,70.43
2018-03-25T19:07:03.861Z,70.99
2018-03-25T19:09:31.107Z,71.79
2018-03-25T19:11:58.492Z,72.30
2018-03-25T19:14:25.138Z,72.64
2018-03-25T19:16:51.638Z,73.42
2018-03-25T19:19:17.886Z,73.26
2018-03-25T19:21:44.102Z,73.76
2018-03-25T19:24:12.265Z,74.09
2018-03-25T19:26:38.528Z,74.44
2018-03-25T19:29:04.487Z,74.51
2018-03-25T19:31:31.632Z,75.50
2018-03-25T19:33:58.025Z,75.94
2018-03-25T19:36:24.151Z,75.37
2018-03-25T19:38:50.366Z,75.54
2018-03-25T19:41:16.672Z,75.69
2018-03-25T19:43:43.039Z,76.02
2018-03-25T19:46:09.294Z,76.06
2018-03-25T19:48:35.661Z,76.15
2018-03-25T19:51:02.427Z,76.07
2018-03-25T19:53:28.580Z,76.75
2018-03-25T19:55:54.722Z,77.17
2018-03-25T19:58:20.727Z,77.36
2018-03-25T20:00:46.538Z,77.42
2018-03-25T20:03:12.382Z,77.43
2018-03-25T20:05:38.221Z,77.47
2018-03-25T20:08:04.125Z,77.83
2018-03-25T20:10:29.974Z,77.99
2018-03-25T20:12:55.833Z,78.12
2018-03-25T20:15:21.678Z,77.93
2018-03-25T20:17:47.506Z,78.58
2018-03-25T20:20:13.320Z,79.03
2018-03-25T20:22:39.208Z,78.90
2018-03-25T20:25:05.056Z,79.18
2018-03-25T20:27:30.852Z,79.26
2018-03-25T20:29:56.682Z,79.55
2018-03-25T20:32:22.507Z,79.82
2018-03-25T20:34:48.313Z,79.43
2018-03-25T20:37:14.113Z,79.83
2018-03-25T20:39:39.939Z,79.88
2018-03-25T20:42:05.770Z,80.41
2018-03-25T20:44:31.569Z,80.67
2018-03-25T20:46:57.397Z,81.19
2018-03-25T20:49:23.318Z,81.74
2018-03-25T20:51:49.193Z,82.21
2018-03-25T20:54:15.017Z,82.11
2018-03-25T20:56:40.831Z,82.73
2018-03-25T20:59:06.647Z,82.90
2018-03-25T21:01:32.485Z,83.13
2018-03-25T21:03:58.304Z,83.14
2018-03-25T21:06:24.231Z,83.46
2018-03-25T21:08:50.040Z,83.38
2018-03-25T21:11:15.836Z,83.74
2018-03-25T21:13:41.619Z,84.00
2018-03-25T21:16:07.755Z,84.74
2018-03-25T21:18:33.629Z,85.13
2018-03-25T21:20:59.415Z,85.11
2018-03-25T21:23:25.242Z,85.63
2018-03-25T21:25:51.039Z,86.12
2018-03-25T21:28:17.797Z,86.07
2018-03-25T21:30:43.643Z,86.43
2018-03-25T21:33:09.468Z,86.28
2018-03-25T21:35:35.267Z,86.65
2018-03-25T21:38:01.072Z,86.80
2018-03-25T21:40:27.528Z,87.23
2018-03-25T21:42:53.340Z,87.10
2018-03-25T21:45:19.729Z,87.74
2018-03-25T21:47:45.553Z,87.60
2018-03-25T21:50:11.355Z,87.07
2018-03-25T21:52:37.224Z,87.54
2018-03-25T21:55:03.051Z,88.26
2018-03-25T21:57:28.914Z,88.03
2018-03-25T21:59:54.751Z,88.56
2018-03-25T22:02:20.565Z,88.64
2018-03-25T22:04:46.652Z,88.99
2018-03-25T22:07:12.491Z,88.97
2018-03-25T22:09:38.293Z,89.41
2018-03-25T22:12:04.110Z,89.32
2018-03-25T22:14:29.882Z,94.04
2018-03-25T22:16:55.676Z,88.65
2018-03-25T22:19:21.459Z,89.61
2018-03-25T22:21:47.231Z,89.41
2018-03-25T22:24:13.052Z,89.60
2018-03-25T22:26:38.842Z,90.33
2018-03-25T22:29:04.647Z,90.25
2018-03-25T22:31:30.648Z,90.04
2018-03-25T22:33:56.439Z,90.82
2018-03-25T22:36:22.224Z,90.54
2018-03-25T22:38:48.025Z,91.12
2018-03-25T22:41:13.827Z,91.14
2018-03-25T22:43:39.621Z,91.07
2018-03-25T22:46:05.449Z,91.41
2018-03-25T22:48:31.230Z,91.40
2018-03-25T22:50:57.014Z,91.65
2018-03-25T22:53:22.815Z,91.45
2018-03-25T22:55:48.600Z,91.57
2018-03-25T22:58:14.392Z,91.26
2018-03-25T23:00:40.206Z,91.57
2018-03-25T23:03:08.074Z,91.46
2018-03-25T23:05:33.877Z,91.86
2018-03-25T23:07:59.684Z,91.53
2018-03-25T23:10:25.505Z,91.67
2018-03-25T23:12:51.309Z,91.49
2018-03-25T23:15:17.418Z,91.33
2018-03-25T23:17:43.230Z,91.37
2018-03-25T23:20:09.022Z,91.33
2018-03-25T23:22:34.843Z,91.65
2018-03-25T23:25:00.631Z,91.62
2018-03-25T23:27:26.429Z,91.20
2018-03-25T23:29:52.239Z,90.93
2018-03-25T23:32:18.035Z,91.50
2018-03-25T23:34:43.826Z,92.06
2018-03-25T23:37:09.634Z,92.16
2018-03-25T23:39:35.486Z,92.03
2018-03-25T23:42:01.275Z,92.11
2018-03-25T23:44:27.085Z,91.89
2018-03-25T23:46:52.868Z,92.05
2018-03-25T23:49:18.660Z,92.04
2018-03-25T23:51:44.492Z,91.68
2018-03-25T23:54:10.396Z,91.85
2018-03-25T23:56:36.213Z,91.71
2018-03-25T23:59:02.060Z,91.92
